首页
METAR-TAF:

METAR-TAF

机场 :

St. Paul Downtown Airport (Holman Field)

圣保罗, 明尼蘇達州, 美国

纬度: 44-55-49N, 经度: 093-02-53W, 海拔: 214米

当前天气观测

该预报发布于38分钟前的20:53 UTC
风速11节,风向西转西北
温度 -11°C
湿度 66%
气压 1014 hPa
能見度: 16.1公里
天空无云

METAR: KSTP 142053Z 29011KT 10SM CLR M11/M16 A2995 RMK AO2 SLP152 T11111161 53011 $

时间: 15:31 (21:31 UTC)


TAF: 丢失

超过4000个机场的气象观测和天气预报(METAR&TAF报告)。

可查询的气象台以黄色和红色小点在地图上表示。

将鼠标移到小点上方,可查看气象台名称。

然后点击查看天气观测和预报。

如需切换地图:点击带黑十字的绿色按钮放大地图;点击带横线的绿色按钮缩小地图;或者点击绿色箭头查看邻近地区的地图。


METAR-TAF: